Tiempo atmosférico en la estación meteorológica de Almadén de la Plata, Sevilla (450 m.)



Fecha
DESCASC
Temp. máxima en grados centígrados (hora)
DESCASC
Temp. mínima en grados centígrados (hora)
DESCASC
Temp. media en grados centígrados
DESCASC
Racha de viento máxima en m/sg (hora)
DESCASC
Velocidad máxima media en intervalos de 10 minutos(hora)
DESCASC
Precipitaciones diarias en mm
DESCASC
Precipitaciones de 00:00 a 06:00 en mm
DESCASC
Precipitaciones de 06:00 a 12:00 en mm
DESCASC
Precipitaciones de 12:00 a 18:00 en mm
DESCASC
Precipitaciones de 18:00 a 24:00 en mm
DESCASC
22-01-2020 7.8 (15:50) 5.7 (01:10) 6.8 6.67 (08:20) 2.78 (10:10) 24.6 3.6 6.4 2.2 12.4
21-01-2020 11 (12:40) 5.2 (08:50) 8.1 8.89 (01:20) 4.44 (01:20) 0 0 0 0 0
20-01-2020 9.3 (16:50) 4.7 (08:10) 7 13.33 (16:10) 5 (08:50) 0 0 0 0 0
19-01-2020 13 (16:10) 7.1 (00:00) 10 12.78 (21:00) 5 (20:40) 0 0 0 0 0
18-01-2020 12.2 (17:00) 9 (00:00) 10.6 7.5 (23:20) 4.44 (23:30) 13.6 0 9.6 4 0
17-01-2020 16.2 (14:50) 8.9 (00:00) 12.6 6.67 (03:30) 2.78 (03:20) 0.4 0.4 0 0 0
16-01-2020 15.9 (15:20) 7.7 (00:00) 11.8 6.11 (15:30) 3.06 (15:30) 0 0 0 0 0
15-01-2020 12.3 (15:20) 5.2 (00:00) 8.8 4.44 (12:40) 2.22 (15:00) 0.4 0 0 0 0.4
14-01-2020 11.5 (13:00) 3 (00:00) 7.3 3.89 (14:00) 2.22 (14:10) 0 0 0 0 0
13-01-2020 13.5 (16:40) 3.1 (00:00) 8.3 5 (13:00) 2.5 (20:10) 0 0 0 0 0
12-01-2020 15.8 (16:40) 3.9 (08:30) 9.9 3.61 (14:40) 1.67 (14:40) 0 0 0 0 0
11-01-2020 14.9 (16:20) 3.8 (00:00) 9.3 6.67 (02:30) 3.33 (02:30) 0 0 0 0 0
10-01-2020 14.1 (15:30) 5.2 (00:00) 9.7 5.83 (15:00) 2.78 (07:30) 0 0 0 0 0
09-01-2020 14.8 (16:20) 4.4 (00:00) 9.6 5.28 (13:40) 2.5 (05:00) 0 0 0 0 0
08-01-2020 -- (--) -- (--) -- -- (--) -- (--) -- 0 0 0 --
07-01-2020 18.9 (15:20) 5.3 (00:00) 12.1 3.89 (12:10) 2.22 (12:30) 0 0 0 0 0
06-01-2020 16.5 (16:10) 4.5 (00:00) 10.5 3.06 (14:40) 1.67 (17:30) 0 0 0 0 0
05-01-2020 15.3 (15:40) 4.9 (00:00) 10.1 4.44 (12:50) 2.5 (12:40) 0 0 0 0 0
04-01-2020 13.3 (16:10) 3.6 (00:00) 8.5 4.72 (10:00) 2.5 (10:40) 0 0 0 0 0
03-01-2020 12.8 (16:20) 5.8 (00:00) 9.3 4.72 (17:30) 1.94 (14:50) 0 0 0 0 0
02-01-2020 14.6 (15:40) 5.6 (00:00) 10.1 4.72 (14:30) 2.5 (19:10) 0 0 0 0 0
01-01-2020 17.3 (15:10) 5.2 (00:00) 11.2 3.89 (18:40) 2.22 (18:10) 0 0 0 0 0
31-12-2019 16.1 (15:40) 4.8 (00:00) 10.5 4.72 (11:00) 2.5 (13:10) 0 0 0 0 0
30-12-2019 -- (--) -- (--) -- -- (--) -- (--) -- 0 0 0 --
29-12-2019 17.7 (15:20) 9.1 (00:00) 13.4 7.22 (12:50) 4.72 (12:50) 0 0 0 0 0
28-12-2019 20.9 (15:30) 9.5 (00:00) 15.2 5.83 (12:30) 3.61 (12:30) 0 0 0 0 0
27-12-2019 20.3 (14:40) 11.7 (00:00) 16 7.78 (11:50) 4.17 (11:50) 0 0 0 0 0
26-12-2019 22.2 (15:30) 10.1 (00:00) 16.2 5.83 (16:30) 2.5 (16:00) 0 0 0 0 0
25-12-2019 21.7 (14:40) 10 (00:00) 15.9 4.17 (15:50) 2.22 (15:30) 0 0 0 0 0

Gráficas

Temp. máximas Temp. mínimas Temp. medias Precipitaciones Rachas de viento máximas Velocidades máximas media en intervalos de 10 minutos

Datos horarios

Fecha y hora oficial Temperatura (ºC) Velocidad del viento (km/h) Dirección del viento Racha (km/h) Dirección de racha Precipitación (mm) Presión (hPa) Tendencia (hPa) Humedad (%)
2020-01-23 23:00:00 8.2 6 Este 14 Sudeste 0.4 -- -- 100
2020-01-23 22:00:00 8.1 5 Sudeste 21 Sudeste 0 -- -- 100
2020-01-23 21:00:00 8.6 7 Sur 24 Sur 0 -- -- 100
2020-01-23 20:00:00 8.1 5 Sudeste 15 Sudeste 0.2 -- -- 100
2020-01-23 19:00:00 8.1 7 Sudeste 14 Sudeste 0.2 -- -- 100
2020-01-23 18:00:00 8.2 5 Sudeste 12 Sudeste 2.4 -- -- 100
2020-01-23 17:00:00 8 2 Sudeste 8 Sudoeste 5 -- -- 100
2020-01-23 16:00:00 7.6 0 Calma 9 Sur 1.4 -- -- 99
2020-01-23 15:00:00 7.2 4 Sudoeste 14 Sudoeste 6.6 -- -- 99
2020-01-23 14:00:00 7.6 6 Sudoeste 17 Sudoeste 6.4 -- -- 100
2020-01-23 13:00:00 7.7 5 Sudeste 19 Sudeste 3.2 -- -- 100
2020-01-23 12:00:00 7.7 4 Este 24 Sudeste 2.8 -- -- 100
2020-01-23 11:00:00 7.5 15 Sudeste 32 Este 1.8 -- -- 100
2020-01-23 10:00:00 7.5 6 Sudeste 18 Sudeste 1.8 -- -- 100
2020-01-23 09:00:00 7.3 6 Este 22 Este 0 -- -- 100
2020-01-23 08:00:00 7.3 6 Este 18 Sudeste 0.2 -- -- 100
2020-01-23 07:00:00 7.3 3 Este 10 Sudeste 0.2 -- -- 100
2020-01-23 06:00:00 7.3 5 Sudeste 18 Sudeste 0.4 -- -- 100
2020-01-23 05:00:00 7.3 8 Sudeste 19 Sudeste 1.6 -- -- 100
2020-01-23 04:00:00 7.3 7 Sudeste 20 Nordeste 2.6 -- -- 100
2020-01-23 03:00:00 7.1 5 Sudeste 15 Sudeste 2.2 -- -- 100
2020-01-23 02:00:00 7.1 5 Sudeste 18 Este 1 -- -- 100
2020-01-23 01:00:00 7.1 8 Sudeste 17 Sudeste 1.4 -- -- 100
2020-01-23 00:00:00 7 4 Sudeste 15 Este 1.6 -- -- 100
2020-01-22 23:00:00 7.1 7 Sudeste 14 Nordeste 1.8 -- -- 100
2020-01-22 22:00:00 6.9 5 Este 17 Este 0.8 -- -- 99
2020-01-22 21:00:00 7 8 Sudeste 18 Sudeste 1.8 -- -- 99
2020-01-22 20:00:00 7.3 7 Sur 24 Sudeste 3.4 -- -- 99
2020-01-22 19:00:00 7.6 5 Sudeste 16 Sudeste 3 -- -- 100
2020-01-22 18:00:00 7.5 5 Este 12 Este 0 -- -- 100
2020-01-22 17:00:00 7.6 4 Este 13 Sudeste 0.2 -- -- 99
2020-01-22 16:00:00 7.7 7 Este 13 Este 0.6 -- -- 99
2020-01-22 15:00:00 7.4 3 Este 13 Este 0 -- -- 99
2020-01-22 14:00:00 7.1 5 Sudeste 14 Sudeste 0.6 -- -- 100
2020-01-22 13:00:00 6.8 7 Este 21 Sudeste 0.8 -- -- 100
2020-01-22 12:00:00 6.5 6 Este 20 Sudeste 0.6 -- -- 100
2020-01-22 11:00:00 6.1 8 Este 18 Sudeste 0.8 -- -- 100
2020-01-22 10:00:00 5.7 9 Este 22 Sudeste 1.4 -- -- 100
2020-01-22 09:00:00 5.7 9 Este 24 Este 0.4 -- -- 100
2020-01-22 08:00:00 5.9 10 Este 22 Sudeste 1.8 -- -- 100
2020-01-22 07:00:00 6.1 7 Este 14 Este 1.4 -- -- 100
2020-01-22 06:00:00 6.1 6 Este 15 Este 1 -- -- 99
2020-01-22 05:00:00 6.1 6 Este 15 Este 1.4 -- -- 98
2020-01-22 04:00:00 6.1 4 Este 9 Este 0.8 -- -- 97
2020-01-22 03:00:00 6.2 5 Nordeste 10 Este 0.4 -- -- 94
2020-01-22 02:00:00 6.2 4 Nordeste 9 Nordeste 0 -- -- 87
2020-01-22 01:00:00 5.8 2 Nordeste 10 Nordeste 0 -- -- 85
2020-01-22 00:00:00 6.5 4 Nordeste 16 Nordeste 0 -- -- 82
2020-01-21 23:00:00 7.2 5 Nordeste 13 Este 0 -- -- 80
2020-01-21 22:00:00 7.2 5 Nordeste 14 Nordeste 0 -- -- 78
2020-01-21 21:00:00 7.1 6 Nordeste 20 Nordeste 0 -- -- 78
2020-01-21 20:00:00 7.6 8 Nordeste 22 Nordeste 0 -- -- 74
2020-01-21 19:00:00 7.8 5 Nordeste 21 Este 0 -- -- 73
2020-01-21 18:00:00 8.3 4 Norte 18 Nordeste 0 -- -- 69
2020-01-21 17:00:00 9.1 8 Nordeste 22 Nordeste 0 -- -- 66
2020-01-21 16:00:00 9 8 Nordeste 24 Este 0 -- -- 65
2020-01-21 15:00:00 8.5 10 Nordeste 26 Nordeste 0 -- -- 66
2020-01-21 14:00:00 9.6 9 Nordeste 26 Norte 0 -- -- 62
2020-01-21 13:00:00 10.9 9 Nordeste 27 Noroeste 0 -- -- 56
2020-01-21 12:00:00 10.1 11 Nordeste 23 Nordeste 0 -- -- 59
2020-01-21 11:00:00 8.2 6 Nordeste 20 Nordeste 0 -- -- 63
2020-01-21 10:00:00 6.5 6 Nordeste 21 Nordeste 0 -- -- 70
2020-01-21 09:00:00 5.2 3 Norte 24 Nordeste 0 -- -- 74
2020-01-21 08:00:00 5.3 8 Nordeste 15 Nordeste 0 -- -- 71
2020-01-21 07:00:00 5.4 6 Nordeste 16 Nordeste 0 -- -- 70
2020-01-21 06:00:00 5.7 6 Nordeste 19 Nordeste 0 -- -- 71
2020-01-21 05:00:00 5.6 4 Norte 14 Noroeste 0 -- -- 75
2020-01-21 04:00:00 5.7 3 Norte 20 Nordeste 0 -- -- 76
2020-01-21 03:00:00 5.8 10 Nordeste 21 Nordeste 0 -- -- 75
2020-01-21 02:00:00 6.3 11 Nordeste 32 Nordeste 0 -- -- 72
2020-01-21 01:00:00 6.9 12 Nordeste 28 Nordeste 0 -- -- 71
2020-01-21 00:00:00 6.9 8 Nordeste 23 Nordeste 0 -- -- 70
2020-01-20 23:00:00 6.6 4 Norte 23 Nordeste 0 -- -- 72
2020-01-20 22:00:00 6.2 5 Nordeste 23 Este 0 -- -- 73
2020-01-20 21:00:00 6.2 5 Nordeste 28 Nordeste 0 -- -- 72
2020-01-20 20:00:00 6.5 8 Nordeste 29 Nordeste 0 -- -- 68
2020-01-20 19:00:00 7 11 Nordeste 27 Este 0 -- -- 63
2020-01-20 18:00:00 7.6 8 Nordeste 28 Este 0 -- -- 59
2020-01-20 17:00:00 8.9 10 Nordeste 48 Nordeste 0 -- -- 55
2020-01-20 16:00:00 8.4 10 Nordeste 37 Este 0 -- -- 57
2020-01-20 15:00:00 6.8 12 Nordeste 31 Este 0 -- -- 60
2020-01-20 14:00:00 6.8 12 Nordeste 39 Nordeste 0 -- -- 58
2020-01-20 13:00:00 7.1 10 Nordeste 25 Nordeste 0 -- -- 56
2020-01-20 12:00:00 7 8 Nordeste 33 Nordeste 0 -- -- 53
2020-01-20 11:00:00 7.2 13 Nordeste 32 Nordeste 0 -- -- 50
2020-01-20 10:00:00 6.1 12 Nordeste 41 Este 0 -- -- 53
2020-01-20 09:00:00 5 17 Nordeste 37 Este 0 -- -- 54
2020-01-20 08:00:00 4.8 10 Nordeste 28 Nordeste 0 -- -- 55
2020-01-20 07:00:00 4.8 4 Nordeste 22 Este 0 -- -- 55
2020-01-20 06:00:00 5 9 Nordeste 28 Este 0 -- -- 53
2020-01-20 05:00:00 5.3 9 Nordeste 24 Nordeste 0 -- -- 54
2020-01-20 04:00:00 5.5 9 Nordeste 26 Nordeste 0 -- -- 55
2020-01-20 03:00:00 5.9 10 Nordeste 33 Nordeste 0 -- -- 56
2020-01-20 02:00:00 6.5 10 Nordeste 43 Nordeste 0 -- -- 55
2020-01-20 01:00:00 6.6 11 Nordeste 30 Nordeste 0 -- -- 57
2020-01-20 00:00:00 7.1 14 Nordeste 36 Este 0 -- -- 55
2020-01-19 23:00:00 7.5 9 Nordeste 32 Nordeste 0 -- -- 55
2020-01-19 22:00:00 7.9 14 Nordeste 35 Este 0 -- -- 54
2020-01-19 21:00:00 8.3 17 Nordeste 46 Este 0 -- -- 54
2020-01-19 20:00:00 9.2 13 Nordeste 35 Nordeste 0 -- -- 48
2020-01-19 19:00:00 9.4 8 Nordeste 26 Nordeste 0 -- -- 53
2020-01-19 18:00:00 10.1 9 Nordeste 34 Nordeste 0 -- -- 54
2020-01-19 17:00:00 11.6 10 Norte 35 Norte 0 -- -- 55
2020-01-19 16:00:00 12.9 8 Norte 30 Norte 0 -- -- 57
2020-01-19 15:00:00 12.4 8 Norte 27 Noroeste 0 -- -- 62
2020-01-19 14:00:00 11.8 12 Norte 30 Noroeste 0 -- -- 64
2020-01-19 13:00:00 11.9 8 Norte 20 Norte 0 -- -- 65
2020-01-19 12:00:00 10.6 8 Norte 28 Noroeste 0 -- -- 75
2020-01-19 11:00:00 9.3 8 Norte 21 Noroeste 0 -- -- 81
2020-01-19 10:00:00 8.4 8 Norte 23 Norte 0 -- -- 84
2020-01-19 09:00:00 8.2 9 Noroeste 27 Noroeste 0 -- -- 88
2020-01-19 08:00:00 8.2 14 Noroeste 27 Noroeste 0 -- -- 88
2020-01-19 07:00:00 7.9 13 Noroeste 30 Noroeste 0 -- -- 89
2020-01-19 06:00:00 7.4 7 Oeste 19 Oeste 0 -- -- 87
2020-01-19 05:00:00 7.6 3 Oeste 22 Oeste 0 -- -- 86
2020-01-19 04:00:00 8 5 Oeste 28 Norte 0 -- -- 83
2020-01-19 03:00:00 9.1 8 Noroeste 23 Noroeste 0 -- -- 93
2020-01-19 02:00:00 9.1 12 Noroeste 24 Noroeste 0 -- -- 92
2020-01-19 01:00:00 9.4 9 Noroeste 18 Oeste 0 -- -- 93
2020-01-19 00:00:00 10.2 12 Noroeste 27 Oeste 0 -- -- 94
2020-01-18 23:00:00 10.4 12 Noroeste 22 Noroeste 0 -- -- 100
2020-01-18 22:00:00 11.4 8 Oeste 24 Sudoeste 0 -- -- 100
2020-01-18 21:00:00 11.8 6 Oeste 15 Oeste 0 -- -- 100
2020-01-18 20:00:00 11.7 5 Sudoeste 12 Sudoeste 0 -- -- 100
2020-01-18 19:00:00 12.1 5 Noroeste 11 Sudoeste 0 -- -- 100
2020-01-18 18:00:00 12 4 Sudoeste 9 Sudoeste 0 -- -- 100
2020-01-18 17:00:00 12.2 4 Sudoeste 9 Sudoeste 0.2 -- -- 100
2020-01-18 16:00:00 11.4 2 Oeste 13 Sudoeste 0.8 -- -- 100
2020-01-18 15:00:00 11.1 6 Sudoeste 19 Sudoeste 0.4 -- -- 100
2020-01-18 14:00:00 10.8 6 Sur 16 Sur 0.8 -- -- 100
2020-01-18 13:00:00 10.4 6 Sur 14 Sudoeste 1.8 -- -- 100
2020-01-18 12:00:00 9.9 5 Sur 22 Sur 1.2 -- -- 100
2020-01-18 11:00:00 9.8 10 Sur 26 Sur 2.8 -- -- 100
2020-01-18 10:00:00 9.6 5 Sur 12 Sur 5.2 -- -- 99
2020-01-18 09:00:00 9.4 2 Noroeste 5 Sur 0.2 -- -- 98
2020-01-18 08:00:00 9.7 0 Calma 5 Sur 0.2 -- -- 99
2020-01-18 07:00:00 9.2 0 Calma 2 Sur 0 -- -- 96
2020-01-18 06:00:00 10.1 0 Calma 13 Sur 0 -- -- 96
2020-01-18 05:00:00 9.9 5 Sur 9 Sur 0 -- -- 97
2020-01-18 04:00:00 10 2 Sur 6 Sur 0 -- -- 98
2020-01-18 03:00:00 9.6 3 Sur 5 Sur 0 -- -- 100
2020-01-18 02:00:00 9.2 0 Calma 2 Sudeste 0 -- -- 99
2020-01-18 01:00:00 9.3 0 Calma 3 Oeste 0 -- -- 100
2020-01-18 00:00:00 9 0 Calma 3 Este 0 -- -- 99
2020-01-17 23:00:00 9.2 0 Calma 3 Sudeste 0 -- -- 98
2020-01-17 22:00:00 9.4 0 Calma 4 Sudeste 0 -- -- 97
2020-01-17 21:00:00 9.9 0 Calma 3 Este 0 -- -- 96
2020-01-17 20:00:00 10.3 0 Calma 12 Sur 0 -- -- 93
2020-01-17 19:00:00 12.3 7 Sur 13 Sur 0 -- -- 88
2020-01-17 18:00:00 14 3 Sur 5 Sur 0 -- -- 80
2020-01-17 17:00:00 14.6 3 Sudeste 14 Este 0 -- -- 74
2020-01-17 16:00:00 14.8 4 Este 12 Este 0 -- -- 75
2020-01-17 15:00:00 16.1 6 Sudeste 16 Nordeste 0 -- -- 66
2020-01-17 14:00:00 15.4 2 Oeste 8 Noroeste 0 -- -- 69
2020-01-17 13:00:00 13.5 0 Calma 5 Noroeste 0 -- -- 82
2020-01-17 12:00:00 11.6 3 Sudeste 6 Este 0 -- -- 100
2020-01-17 11:00:00 10.6 0 Calma 8 Noroeste 0 -- -- 100
2020-01-17 10:00:00 10.1 3 Noroeste 7 Noroeste 0 -- -- 100
2020-01-17 09:00:00 10.4 0 Calma 3 Noroeste 0 -- -- 100
2020-01-17 08:00:00 10.7 0 Calma 6 Sudoeste 0 -- -- 100
2020-01-17 07:00:00 10.7 0 Calma 9 Sudoeste 0 -- -- 100
2020-01-17 06:00:00 10.7 4 Sur 12 Oeste 0.2 -- -- 99
2020-01-17 05:00:00 10.8 4 Sudoeste 15 Sur 0.2 -- -- 98
2020-01-17 04:00:00 10.8 4 Sudoeste 24 Oeste 0 -- -- 98
2020-01-17 03:00:00 10.9 5 Sudoeste 14 Sudoeste 0 -- -- 98
2020-01-17 02:00:00 10.9 4 Sudoeste 21 Sur 0 -- -- 97
2020-01-17 01:00:00 10.9 8 Sur 15 Sudoeste 0 -- -- 97
2020-01-17 00:00:00 11 7 Sudoeste 17 Sudoeste 0 -- -- 96
2020-01-16 23:00:00 10.8 5 Sudoeste 13 Sudoeste 0 -- -- 95
2020-01-16 22:00:00 8.4 4 Sur 9 Sur 0 -- -- 83
2020-01-16 21:00:00 9.4 4 Sur 8 Sur 0 -- -- 73
2020-01-16 20:00:00 9.7 5 Sur 11 Sudoeste 0 -- -- 69
2020-01-16 19:00:00 10.5 5 Sur 8 Sudoeste 0 -- -- 68
2020-01-16 18:00:00 12.8 5 Sur 17 Sur 0 -- -- 59
2020-01-16 17:00:00 14.8 10 Sur 20 Sur 0 -- -- 49
2020-01-16 16:00:00 15.7 8 Sudoeste 22 Sudoeste 0 -- -- 44
2020-01-16 15:00:00 15.7 8 Sudoeste 20 Sur 0 -- -- 46
2020-01-16 14:00:00 15.2 8 Sur 21 Sur 0 -- -- 49
2020-01-16 13:00:00 14.4 6 Sur 13 Sudeste 0 -- -- 57
2020-01-16 12:00:00 12.6 5 Este 15 Sur 0 -- -- 71
2020-01-16 11:00:00 9.9 5 Este 11 Este 0 -- -- 100
2020-01-16 10:00:00 8.1 0 Calma 6 Sudeste 0 -- -- 100
2020-01-16 09:00:00 8.2 5 Sudeste 8 Sudeste 0 -- -- 100
2020-01-16 08:00:00 7.7 2 Sudeste 5 Sudeste 0 -- -- 99
2020-01-16 07:00:00 8.5 0 Calma 4 Sudeste 0 -- -- 99
2020-01-16 06:00:00 9.5 0 Calma 8 Sudeste 0 -- -- 99
2020-01-16 05:00:00 9.6 4 Sudeste 7 Sudeste 0 -- -- 99
2020-01-16 04:00:00 9.8 0 Calma 5 Sur 0 -- -- 99
2020-01-16 03:00:00 9.5 2 Sudoeste 5 Sudoeste 0 -- -- 98
2020-01-16 02:00:00 10.7 2 Sur 5 Sur 0 -- -- 98
2020-01-16 01:00:00 11 2 Sur 7 Sur 0 -- -- 98
2020-01-16 00:00:00 11.1 4 Sudoeste 10 Sur 0 -- -- 98
2020-01-15 23:00:00 11.3 2 Sur 8 Sur 0 -- -- 97
2020-01-15 22:00:00 11.4 4 Sur 12 Sur 0 -- -- 97
2020-01-15 21:00:00 11.3 3 Sur 9 Sudeste 0 -- -- 97
2020-01-15 20:00:00 10.7 0 Calma 8 Sudeste 0.2 -- -- 96
2020-01-15 19:00:00 10.7 3 Sudeste 7 Sur 0.2 -- -- 94
2020-01-15 18:00:00 11.1 3 Este 11 Sudeste 0 -- -- 92
2020-01-15 17:00:00 11.3 5 Sudeste 13 Este 0 -- -- 85
2020-01-15 16:00:00 12 6 Sudeste 14 Sudeste 0 -- -- 84
2020-01-15 15:00:00 11.5 8 Sudeste 15 Sudeste 0 -- -- 85
2020-01-15 14:00:00 10.9 7 Sudeste 15 Sudeste 0 -- -- 87
2020-01-15 13:00:00 10 7 Sudeste 16 Sudeste 0 -- -- 90
2020-01-15 12:00:00 8.7 3 Sudeste 14 Sudeste 0 -- -- 88
2020-01-15 11:00:00 8.2 5 Este 14 Sudeste 0 -- -- 86
2020-01-15 10:00:00 7.9 3 Este 10 Sudeste 0 -- -- 89
2020-01-15 09:00:00 7.2 5 Sudeste 14 Sur 0 -- -- 90
2020-01-15 08:00:00 6 0 Calma 7 Sudeste 0 -- -- 92
2020-01-15 07:00:00 6.2 0 Calma 7 Sudeste 0 -- -- 92
2020-01-15 06:00:00 6.9 3 Sudeste 12 Sudeste 0 -- -- 89
2020-01-15 05:00:00 6.6 6 Sudeste 10 Sudeste 0 -- -- 92
2020-01-15 04:00:00 5.8 5 Sudeste 7 Sudeste 0 -- -- 94
2020-01-15 03:00:00 5.5 5 Sudeste 7 Sudeste 0 -- -- 93
2020-01-15 02:00:00 5.9 0 Calma 5 Sur 0 -- -- 91
2020-01-15 01:00:00 6.7 3 Sur 8 Sur 0 -- -- 93
2020-01-15 00:00:00 6.5 3 Sur 6 Sur 0 -- -- 90
2020-01-14 23:00:00 7.1 5 Sur 8 Sur 0 -- -- 87
2020-01-14 22:00:00 6.4 0 Calma 4 Sur 0 -- -- 88
2020-01-14 21:00:00 7.2 0 Calma 4 Sur 0 -- -- 83
2020-01-14 20:00:00 8.7 2 Sudoeste 4 Sudoeste 0 -- -- 77
2020-01-14 19:00:00 9.5 0 Calma 9 Sur 0 -- -- 73
2020-01-14 18:00:00 10 2 Sur 11 Sur 0 -- -- 70
2020-01-14 17:00:00 10.7 4 Sur 12 Sur 0 -- -- 70
2020-01-14 16:00:00 11.4 4 Sur 12 Sudeste 0 -- -- 64
2020-01-14 15:00:00 11.2 4 Sur 14 Sudoeste 0 -- -- 64
2020-01-14 14:00:00 11.5 7 Sudoeste 14 Sudoeste 0 -- -- 67
2020-01-14 13:00:00 11.5 5 Sudeste 11 Sudeste 0 -- -- 62
2020-01-14 12:00:00 9 2 Nordeste 6 Sudeste 0 -- -- 91
2020-01-14 11:00:00 6.4 0 Calma 6 Este 0 -- -- 98
2020-01-14 10:00:00 4.7 0 Calma 6 Sudeste 0 -- -- 99
2020-01-14 09:00:00 3 0 Calma 8 Sudeste 0 -- -- 99
2020-01-14 08:00:00 3.6 4 Sudeste 6 Sudeste 0 -- -- 100
2020-01-14 07:00:00 3.7 2 Sudeste 3 Sudeste 0 -- -- 98
2020-01-14 06:00:00 3.5 0 Calma 2 Sudeste 0 -- -- 97
2020-01-14 05:00:00 4.2 0 Calma 3 Este 0 -- -- 97
2020-01-14 04:00:00 4.5 0 Calma 0 Calma 0 -- -- 97
2020-01-14 03:00:00 4.5 0 Calma 3 Sudoeste 0 -- -- 96
2020-01-14 02:00:00 4.9 2 Sudoeste 5 Oeste -- -- -- 96
2020-01-14 01:00:00 5.3 2 Sudoeste 6 Oeste 0 -- -- 96
2020-01-14 00:00:00 5.2 0 Calma 5 Sudoeste 0 -- -- 96
2020-01-13 23:00:00 5.7 0 Calma 8 Sur 0 -- -- 92
2020-01-13 22:00:00 6.4 4 Sudoeste 13 Sur 0 -- -- 89
2020-01-13 21:00:00 7.3 7 Sur 13 Sur 0 -- -- 85
2020-01-13 20:00:00 8 9 Sur 13 Sur 0 -- -- 84
2020-01-13 19:00:00 9.1 8 Sur 13 Sur 0 -- -- 79
2020-01-13 18:00:00 11.2 6 Sur 12 Sudoeste 0 -- -- 71
2020-01-13 17:00:00 12.9 5 Sudoeste 15 Sudoeste 0 -- -- 63
2020-01-13 16:00:00 13.1 5 Sudoeste 15 Sudoeste 0 -- -- 61
2020-01-13 15:00:00 12.9 5 Sudoeste 17 Sudoeste 0 -- -- 60
2020-01-13 14:00:00 12.4 6 Oeste 16 Sudoeste 0 -- -- 61
2020-01-13 13:00:00 12 9 Sudoeste 18 Sudoeste 0 -- -- 63
2020-01-13 12:00:00 10.4 4 Oeste 10 Sudoeste 0 -- -- 69
2020-01-13 11:00:00 7.5 0 Calma 3 Noroeste 0 -- -- 75
2020-01-13 10:00:00 5.8 0 Calma 4 Norte 0 -- -- 82
2020-01-13 09:00:00 3.4 0 Calma 5 Sur 0 -- -- 88
2020-01-13 08:00:00 3.4 0 Calma 0 Calma 0 -- -- 86
2020-01-13 07:00:00 3.3 0 Calma 2 Oeste 0 -- -- 87
2020-01-13 06:00:00 3.8 0 Calma 2 Sur 0 -- -- 84
2020-01-13 05:00:00 4.2 0 Calma 2 Sudeste 0 -- -- 84
2020-01-13 04:00:00 4.2 0 Calma 0 Calma 0 -- -- 84
2020-01-13 03:00:00 4.6 0 Calma 3 Oeste 0 -- -- 81
2020-01-13 02:00:00 5.2 0 Calma 3 Sudeste 0 -- -- 79
2020-01-13 01:00:00 5.5 0 Calma 4 Sudeste 0 -- -- 78
2020-01-13 00:00:00 5.9 0 Calma 5 Este 0 -- -- 75
2020-01-12 23:00:00 6.2 4 Este 5 Este 0 -- -- 78
2020-01-12 22:00:00 6.1 0 Calma 2 Sudoeste 0 -- -- 81
2020-01-12 21:00:00 6.8 0 Calma 7 Sur 0 -- -- 75
2020-01-12 20:00:00 8.2 3 Sur 8 Sur 0 -- -- 72
2020-01-12 19:00:00 9.8 3 Sudoeste 11 Sur 0 -- -- 67
2020-01-12 18:00:00 12.1 4 Este 9 Este 0 -- -- 53
2020-01-12 17:00:00 14.7 4 Sudeste 9 Este 0 -- -- 45
2020-01-12 16:00:00 15.4 4 Oeste 9 Sudoeste 0 -- -- 41
2020-01-12 15:00:00 14.6 3 Oeste 13 Oeste 0 -- -- 42
2020-01-12 14:00:00 14.1 4 Oeste 13 Noroeste 0 -- -- 45
2020-01-12 13:00:00 14 3 Sudeste 6 Este 0 -- -- 44
2020-01-12 12:00:00 11.7 2 Norte 3 Nordeste 0 -- -- 55
2020-01-12 11:00:00 8.9 0 Calma 2 Nordeste 0 -- -- 65
2020-01-12 10:00:00 6.4 0 Calma 2 Sudeste 0 -- -- 78
2020-01-12 09:00:00 4.1 0 Calma 0 Calma 0 -- -- 80
2020-01-12 08:00:00 4.5 0 Calma 2 Sudeste 0 -- -- 78
2020-01-12 07:00:00 4.7 0 Calma 0 Calma 0 -- -- 76
2020-01-12 06:00:00 4.7 0 Calma 0 Calma 0 -- -- 77
2020-01-12 05:00:00 5 0 Calma 0 Calma 0 -- -- 76
2020-01-12 04:00:00 4.6 0 Calma 0 Calma 0 -- -- 78
2020-01-12 03:00:00 5 0 Calma 2 Sudoeste 0 -- -- 77
2020-01-12 02:00:00 5.5 0 Calma 0 Calma 0 -- -- 76
2020-01-12 01:00:00 5.4 0 Calma 0 Calma 0 -- -- 76
2020-01-12 00:00:00 6 0 Calma 2 Oeste 0 -- -- 73
2020-01-11 23:00:00 6.2 0 Calma 2 Oeste 0 -- -- 74
2020-01-11 22:00:00 6.5 0 Calma 3 Oeste 0 -- -- 73
2020-01-11 21:00:00 7 0 Calma 4 Sur 0 -- -- 72
2020-01-11 20:00:00 8.9 3 Sur 9 Sur 0 -- -- 63
2020-01-11 19:00:00 9.9 7 Sur 9 Sur 0 -- -- 60
2020-01-11 18:00:00 11.7 4 Sur 6 Sudeste 0 -- -- 54
2020-01-11 17:00:00 13.9 3 Sudeste 11 Este 0 -- -- 44
2020-01-11 16:00:00 14.7 6 Este 13 Este 0 -- -- 43
2020-01-11 15:00:00 14.6 6 Este 15 Este 0 -- -- 44
2020-01-11 14:00:00 13.8 7 Este 16 Este 0 -- -- 47
2020-01-11 13:00:00 12.6 9 Este 18 Este 0 -- -- 47
2020-01-11 12:00:00 12.2 5 Nordeste 14 Nordeste 0 -- -- 50
2020-01-11 11:00:00 10.2 4 Nordeste 13 Este 0 -- -- 59
2020-01-11 10:00:00 6.5 0 Calma 3 Sudoeste 0 -- -- 66
2020-01-11 09:00:00 4.2 0 Calma 6 Nordeste 0 -- -- 73
2020-01-11 08:00:00 4.4 0 Calma 11 Nordeste 0 -- -- 72
2020-01-11 07:00:00 4.8 4 Nordeste 10 Este 0 -- -- 71
2020-01-11 06:00:00 5.1 4 Nordeste 10 Este 0 -- -- 70
2020-01-11 05:00:00 6.5 2 Este 18 Nordeste 0 -- -- 62
2020-01-11 04:00:00 7.2 8 Nordeste 18 Este 0 -- -- 60
2020-01-11 03:00:00 7.7 10 Este 24 Nordeste 0 -- -- 58
2020-01-11 02:00:00 7.1 5 Nordeste 14 Nordeste 0 -- -- 61
2020-01-11 01:00:00 7.8 8 Nordeste 16 Nordeste 0 -- -- 59
2020-01-11 00:00:00 7 3 Nordeste 16 Este 0 -- -- 62
2020-01-10 23:00:00 7.7 6 Nordeste 18 Nordeste 0 -- -- 64
2020-01-10 22:00:00 7.4 8 Nordeste 14 Nordeste 0 -- -- 70
2020-01-10 21:00:00 6.9 0 Calma 6 Norte 0 -- -- 76
2020-01-10 20:00:00 8.2 0 Calma 9 Este 0 -- -- 70
2020-01-10 19:00:00 9.7 4 Nordeste 15 Este 0 -- -- 67
2020-01-10 18:00:00 11.3 3 Nordeste 16 Norte 0 -- -- 65
2020-01-10 17:00:00 12.9 3 Nordeste 11 Norte 0 -- -- 63
2020-01-10 16:00:00 13.1 3 Nordeste 20 Este 0 -- -- 63
2020-01-10 15:00:00 13.9 6 Nordeste 21 Este 0 -- -- 55
2020-01-10 14:00:00 13.3 5 Nordeste 15 Norte 0 -- -- 52
2020-01-10 13:00:00 11.8 5 Nordeste 19 Nordeste 0 -- -- 56
2020-01-10 12:00:00 10.3 6 Norte 17 Norte 0 -- -- 59
2020-01-10 11:00:00 8.7 5 Norte 18 Norte 0 -- -- 70
2020-01-10 10:00:00 6.5 5 Norte 15 Norte 0 -- -- 83
2020-01-10 09:00:00 5.5 7 Norte 16 Norte 0 -- -- 87
2020-01-10 08:00:00 6 4 Norte 19 Norte 0 -- -- 87
2020-01-10 07:00:00 6.3 6 Norte 17 Noroeste 0 -- -- 91
2020-01-10 06:00:00 7.2 8 Norte 17 Norte 0 -- -- 90
2020-01-10 05:00:00 7.8 7 Norte 18 Noroeste 0 -- -- 91
2020-01-10 04:00:00 8.2 5 Noroeste 12 Noroeste 0 -- -- 97
2020-01-10 03:00:00 7.7 5 Noroeste 8 Noroeste 0 -- -- 97
2020-01-10 02:00:00 8.5 5 Oeste 11 Oeste 0 -- -- 96
2020-01-10 01:00:00 9.1 3 Noroeste 13 Noroeste 0 -- -- 92
2020-01-10 00:00:00 8.8 4 Noroeste 16 Noroeste 0 -- -- 90
2020-01-09 23:00:00 7.5 3 Oeste 9 Oeste 0 -- -- 88
2020-01-09 22:00:00 8.3 6 Oeste 12 Oeste 0 -- -- 89
2020-01-09 21:00:00 8.7 3 Sudoeste 8 Oeste 0 -- -- 91
2020-01-09 20:00:00 9.3 5 Sudoeste 12 Sudoeste 0 -- -- 88
2020-01-09 19:00:00 10.2 7 Sudoeste 12 Sur 0 -- -- 85
2020-01-09 18:00:00 12 3 Sudoeste 6 Oeste 0 -- -- 74
2020-01-09 17:00:00 13.7 3 Oeste 8 Oeste 0 -- -- 63
2020-01-09 16:00:00 14.3 0 Calma 12 Oeste 0 -- -- 62
2020-01-09 15:00:00 12.8 6 Oeste 15 Oeste 0 -- -- 69
2020-01-09 14:00:00 11 6 Noroeste 19 Oeste 0 -- -- 80
2020-01-09 13:00:00 9.7 5 Sudoeste 16 Sudoeste 0 -- -- 87
2020-01-09 12:00:00 9.4 6 Sudoeste 15 Sudoeste 0 -- -- 90
2020-01-09 11:00:00 8.6 7 Oeste 16 Sudoeste 0 -- -- 95
2020-01-09 10:00:00 6.4 2 Oeste 8 Oeste 0 -- -- 94
2020-01-09 09:00:00 5.2 2 Sudoeste 7 Sudoeste 0 -- -- 96
2020-01-09 08:00:00 5.3 3 Oeste 9 Oeste 0 -- -- 96
2020-01-09 07:00:00 4.4 0 Calma 2 Sur 0 -- -- 90
2020-01-09 06:00:00 5.5 0 Calma 13 Sur 0 -- -- 85
2020-01-09 05:00:00 7.3 9 Sur 14 Sudoeste 0 -- -- 79
2020-01-09 04:00:00 7 2 Sur 10 Sur 0 -- -- 79
2020-01-09 03:00:00 6.7 3 Sur 6 Sudoeste 0 -- -- 80
2020-01-09 02:00:00 7.3 2 Sudoeste 4 Sudoeste 0 -- -- 78
2020-01-09 01:00:00 7.6 0 Calma 2 Sur 0 -- -- 77
2020-01-09 00:00:00 8.2 0 Calma 2 Sur 0 -- -- 75
2020-01-08 23:00:00 8.9 0 Calma 3 Oeste 0 -- -- 73
2020-01-08 22:00:00 9.9 0 Calma 4 Oeste 0 -- -- 71
2020-01-08 21:00:00 10 0 Calma 2 Sudoeste 0 -- -- 69
2020-01-08 20:00:00 10.7 0 Calma 3 Nordeste 0 -- -- 66
2020-01-08 19:00:00 -- -- -- -- -- -- -- -- --
2020-01-08 18:00:00 14.9 6 Sur 10 Sur 0 -- -- 48
2020-01-08 17:00:00 18.1 2 Sudoeste 8 Sudoeste 0 -- -- 41
2020-01-08 16:00:00 19.3 3 Sudoeste 10 Sudoeste 0 -- -- 40
2020-01-08 15:00:00 19 5 Sudeste 10 Sur 0 -- -- 41
2020-01-08 14:00:00 19.4 2 Este 5 Este 0 -- -- 30
2020-01-08 13:00:00 17.1 0 Calma 4 Este 0 -- -- 35
2020-01-08 12:00:00 15.3 3 Nordeste 5 Nordeste 0 -- -- 44
2020-01-08 11:00:00 11.9 0 Calma 2 Noroeste 0 -- -- 52
2020-01-08 10:00:00 8.7 0 Calma 5 Sur 0 -- -- 64
2020-01-08 09:00:00 7.1 0 Calma 4 Sudeste 0 -- -- 61
2020-01-08 08:00:00 6.9 0 Calma 0 Calma 0 -- -- 62
2020-01-08 07:00:00 6.7 0 Calma 0 Calma 0 -- -- 60
2020-01-08 06:00:00 6.7 0 Calma 4 Sudoeste 0 -- -- 65
2020-01-08 05:00:00 7.5 0 Calma 9 Sudoeste 0 -- -- 63
2020-01-08 04:00:00 7.5 2 Sudoeste 4 Sudoeste 0 -- -- 68
2020-01-08 03:00:00 7.8 0 Calma 4 Sudoeste 0 -- -- 71
2020-01-08 02:00:00 7.7 2 Oeste 4 Oeste 0 -- -- 72
2020-01-08 01:00:00 8.2 0 Calma 4 Oeste 0 -- -- 72
2020-01-08 00:00:00 8.5 0 Calma 3 Sudoeste 0 -- -- 73
2020-01-07 23:00:00 8.4 0 Calma 5 Oeste 0 -- -- 74
2020-01-07 22:00:00 9.1 0 Calma 2 Oeste 0 -- -- 76
2020-01-07 21:00:00 9.3 0 Calma 2 Sudeste 0 -- -- 74
2020-01-07 20:00:00 9.9 0 Calma 2 Oeste 0 -- -- 74
2020-01-07 19:00:00 12 0 Calma 6 Sur 0 -- -- 65
2020-01-07 18:00:00 14.9 4 Sur 6 Sudoeste 0 -- -- 56
2020-01-07 17:00:00 17.5 4 Este 8 Este 0 -- -- 43
2020-01-07 16:00:00 18.7 2 Sudoeste 8 Nordeste 0 -- -- 41
2020-01-07 15:00:00 18.2 2 Noroeste 8 Oeste 0 -- -- 40
2020-01-07 14:00:00 17.3 2 Noroeste 8 Norte 0 -- -- 42
2020-01-07 13:00:00 16.2 5 Este 14 Este 0 -- -- 47
2020-01-07 12:00:00 14.6 5 Nordeste 13 Este 0 -- -- 53
2020-01-07 11:00:00 11.4 0 Calma 3 Este 0 -- -- 64
2020-01-07 10:00:00 8.3 0 Calma 2 Sudeste 0 -- -- 75
2020-01-07 09:00:00 5.3 0 Calma 2 Noroeste 0 -- -- 87
2020-01-07 08:00:00 6 2 Sudeste 5 Sudeste 0 -- -- 83
2020-01-07 07:00:00 7.8 3 Sudeste 8 Este 0 -- -- 74
2020-01-07 06:00:00 7.3 5 Sudeste 8 Este 0 -- -- 80
2020-01-07 05:00:00 7.3 2 Este 9 Sudeste 0 -- -- 81
2020-01-07 04:00:00 6.3 0 Calma 3 Sudeste 0 -- -- 86
2020-01-07 03:00:00 6.1 2 Sudoeste 3 Sudoeste 0 -- -- 89
2020-01-07 02:00:00 6.5 0 Calma 3 Sudeste -- -- -- 90
2020-01-07 01:00:00 6.4 0 Calma 3 Sur 0 -- -- 90
2020-01-07 00:00:00 6.8 0 Calma 4 Sudoeste 0 -- -- 89
2020-01-06 23:00:00 7.8 0 Calma 4 Noroeste 0 -- -- 92
2020-01-06 22:00:00 7.6 0 Calma 4 Noroeste 0 -- -- 93
2020-01-06 21:00:00 8.1 0 Calma 3 Sudeste 0 -- -- 91
2020-01-06 20:00:00 8.4 0 Calma 3 Oeste 0 -- -- 88
2020-01-06 19:00:00 10 0 Calma 6 Sudoeste 0 -- -- 81
2020-01-06 18:00:00 12.4 4 Sur 11 Sur 0 -- -- 72
2020-01-06 17:00:00 15 0 Calma 6 Este 0 -- -- 60
2020-01-06 16:00:00 16.4 0 Calma 9 Nordeste 0 -- -- 52
2020-01-06 15:00:00 15.7 5 Sudeste 11 Este 0 -- -- 51
2020-01-06 14:00:00 15.2 2 Nordeste 10 Este 0 -- -- 57
2020-01-06 13:00:00 13.5 2 Nordeste 7 Este 0 -- -- 60
2020-01-06 12:00:00 11.8 2 Nordeste 5 Nordeste 0 -- -- 77
2020-01-06 11:00:00 9.1 0 Calma 4 Norte 0 -- -- 87
2020-01-06 10:00:00 6.3 2 Oeste 6 Este 0 -- -- 97